sensor_id;sensor_type;location;lat;lon;timestamp;temperature;humidity
10390;DHT22;5241;47.830;12.972;2023-04-05T00:00:51;-1.70;99.90
10390;DHT22;5241;47.830;12.972;2023-04-05T00:03:18;-1.70;99.90
10390;DHT22;5241;47.830;12.972;2023-04-05T00:05:44;-1.70;99.90
10390;DHT22;5241;47.830;12.972;2023-04-05T00:08:10;-1.80;99.90
10390;DHT22;5241;47.830;12.972;2023-04-05T00:10:48;-1.70;99.90
10390;DHT22;5241;47.830;12.972;2023-04-05T00:13:14;-1.70;99.90
10390;DHT22;5241;47.830;12.972;2023-04-05T00:15:40;-1.70;99.90
10390;DHT22;5241;47.830;12.972;2023-04-05T00:18:06;-1.70;99.90
10390;DHT22;5241;47.830;12.972;2023-04-05T00:20:31;-1.80;99.90
10390;DHT22;5241;47.830;12.972;2023-04-05T00:22:58;-1.70;99.90
10390;DHT22;5241;47.830;12.972;2023-04-05T00:25:23;-1.70;99.90
10390;DHT22;5241;47.830;12.972;2023-04-05T00:27:49;-1.70;99.90
10390;DHT22;5241;47.830;12.972;2023-04-05T00:30:16;-1.70;99.90
10390;DHT22;5241;47.830;12.972;2023-04-05T00:32:49;-1.60;99.90
10390;DHT22;5241;47.830;12.972;2023-04-05T00:35:15;-1.50;99.90
10390;DHT22;5241;47.830;12.972;2023-04-05T00:37:41;-1.40;99.90
10390;DHT22;5241;47.830;12.972;2023-04-05T00:40:07;-1.40;99.90
10390;DHT22;5241;47.830;12.972;2023-04-05T00:42:33;-1.40;99.90
10390;DHT22;5241;47.830;12.972;2023-04-05T00:44:59;-1.40;99.90
10390;DHT22;5241;47.830;12.972;2023-04-05T00:47:25;-1.40;99.90
10390;DHT22;5241;47.830;12.972;2023-04-05T00:49:51;-1.30;99.90
10390;DHT22;5241;47.830;12.972;2023-04-05T00:52:17;-1.20;99.90
10390;DHT22;5241;47.830;12.972;2023-04-05T00:54:44;-1.10;99.90
10390;DHT22;5241;47.830;12.972;2023-04-05T00:57:10;-1.10;99.90
10390;DHT22;5241;47.830;12.972;2023-04-05T00:59:36;-1.10;99.90
10390;DHT22;5241;47.830;12.972;2023-04-05T01:02:07;-1.00;99.90
10390;DHT22;5241;47.830;12.972;2023-04-05T01:04:38;-1.00;99.90
10390;DHT22;5241;47.830;12.972;2023-04-05T01:07:16;-0.90;99.90
10390;DHT22;5241;47.830;12.972;2023-04-05T01:09:58;-1.00;99.90
10390;DHT22;5241;47.830;12.972;2023-04-05T01:12:27;-1.00;99.90
10390;DHT22;5241;47.830;12.972;2023-04-05T01:14:56;-1.00;99.90
10390;DHT22;5241;47.830;12.972;2023-04-05T01:17:23;-1.00;99.90
10390;DHT22;5241;47.830;12.972;2023-04-05T01:19:55;-1.10;99.90
10390;DHT22;5241;47.830;12.972;2023-04-05T01:30:38;-1.50;99.90
10390;DHT22;5241;47.830;12.972;2023-04-05T01:36:07;-1.70;99.90
10390;DHT22;5241;47.830;12.972;2023-04-05T01:38:38;-1.70;99.90
10390;DHT22;5241;47.830;12.972;2023-04-05T01:41:04;-1.60;99.90
10390;DHT22;5241;47.830;12.972;2023-04-05T01:43:29;-1.50;99.90
10390;DHT22;5241;47.830;12.972;2023-04-05T01:45:55;-1.60;99.90
10390;DHT22;5241;47.830;12.972;2023-04-05T01:48:20;-1.80;99.90
10390;DHT22;5241;47.830;12.972;2023-04-05T01:50:46;-1.90;99.90
10390;DHT22;5241;47.830;12.972;2023-04-05T01:53:12;-2.00;99.90
10390;DHT22;5241;47.830;12.972;2023-04-05T01:55:37;-2.00;99.90
10390;DHT22;5241;47.830;12.972;2023-04-05T01:58:03;-2.00;99.90
10390;DHT22;5241;47.830;12.972;2023-04-05T02:00:28;-2.00;99.90
10390;DHT22;5241;47.830;12.972;2023-04-05T02:02:54;-1.90;99.90
10390;DHT22;5241;47.830;12.972;2023-04-05T02:05:19;-1.80;99.90
10390;DHT22;5241;47.830;12.972;2023-04-05T02:07:45;-1.70;99.90
10390;DHT22;5241;47.830;12.972;2023-04-05T02:10:10;-1.90;99.90
10390;DHT22;5241;47.830;12.972;2023-04-05T02:12:36;-2.10;99.90
10390;DHT22;5241;47.830;12.972;2023-04-05T02:15:02;-2.10;99.90
10390;DHT22;5241;47.830;12.972;2023-04-05T02:17:28;-2.10;99.90
10390;DHT22;5241;47.830;12.972;2023-04-05T02:19:59;-2.20;99.90
10390;DHT22;5241;47.830;12.972;2023-04-05T02:22:34;-2.20;99.90
10390;DHT22;5241;47.830;12.972;2023-04-05T02:25:01;-2.00;99.90
10390;DHT22;5241;47.830;12.972;2023-04-05T02:27:28;-1.80;99.90
10390;DHT22;5241;47.830;12.972;2023-04-05T02:29:53;-1.70;99.90
10390;DHT22;5241;47.830;12.972;2023-04-05T02:32:20;-1.80;99.90
10390;DHT22;5241;47.830;12.972;2023-04-05T02:34:45;-1.80;99.90
10390;DHT22;5241;47.830;12.972;2023-04-05T02:37:11;-1.90;99.90
10390;DHT22;5241;47.830;12.972;2023-04-05T02:39:37;-2.10;99.90
10390;DHT22;5241;47.830;12.972;2023-04-05T02:42:02;-2.20;99.90
10390;DHT22;5241;47.830;12.972;2023-04-05T02:44:28;-2.20;99.90
10390;DHT22;5241;47.830;12.972;2023-04-05T02:46:54;-2.10;99.90
10390;DHT22;5241;47.830;12.972;2023-04-05T02:49:20;-2.00;99.90
10390;DHT22;5241;47.830;12.972;2023-04-05T02:51:45;-2.10;99.90
10390;DHT22;5241;47.830;12.972;2023-04-05T02:54:11;-2.20;99.90
10390;DHT22;5241;47.830;12.972;2023-04-05T02:56:36;-2.20;99.90
10390;DHT22;5241;47.830;12.972;2023-04-05T02:59:02;-2.30;99.90
10390;DHT22;5241;47.830;12.972;2023-04-05T03:01:28;-2.40;99.90
10390;DHT22;5241;47.830;12.972;2023-04-05T03:03:54;-2.50;99.90
10390;DHT22;5241;47.830;12.972;2023-04-05T03:06:20;-2.60;99.90
10390;DHT22;5241;47.830;12.972;2023-04-05T03:08:46;-2.70;99.90
10390;DHT22;5241;47.830;12.972;2023-04-05T03:11:14;-2.70;99.90
10390;DHT22;5241;47.830;12.972;2023-04-05T03:13:40;-2.80;99.90
10390;DHT22;5241;47.830;12.972;2023-04-05T03:16:06;-2.90;99.90
10390;DHT22;5241;47.830;12.972;2023-04-05T03:18:31;-2.80;99.90
10390;DHT22;5241;47.830;12.972;2023-04-05T03:20:57;-2.70;99.90
10390;DHT22;5241;47.830;12.972;2023-04-05T03:23:27;-2.60;99.90
10390;DHT22;5241;47.830;12.972;2023-04-05T03:25:58;-2.80;99.90
10390;DHT22;5241;47.830;12.972;2023-04-05T03:28:24;-2.80;99.90
10390;DHT22;5241;47.830;12.972;2023-04-05T03:30:50;-2.70;99.90
10390;DHT22;5241;47.830;12.972;2023-04-05T03:33:16;-2.80;99.90
10390;DHT22;5241;47.830;12.972;2023-04-05T03:35:41;-2.90;99.90
10390;DHT22;5241;47.830;12.972;2023-04-05T03:38:07;-2.90;99.90
10390;DHT22;5241;47.830;12.972;2023-04-05T03:40:33;-2.90;99.90
10390;DHT22;5241;47.830;12.972;2023-04-05T03:42:59;-2.80;99.90
10390;DHT22;5241;47.830;12.972;2023-04-05T03:45:24;-2.90;99.90
10390;DHT22;5241;47.830;12.972;2023-04-05T03:47:51;-2.90;99.90
10390;DHT22;5241;47.830;12.972;2023-04-05T03:50:17;-3.00;99.90
10390;DHT22;5241;47.830;12.972;2023-04-05T03:52:43;-2.80;99.90
10390;DHT22;5241;47.830;12.972;2023-04-05T03:55:08;-2.80;99.90
10390;DHT22;5241;47.830;12.972;2023-04-05T03:57:36;-2.80;99.90
10390;DHT22;5241;47.830;12.972;2023-04-05T04:00:03;-2.80;99.90
10390;DHT22;5241;47.830;12.972;2023-04-05T04:02:48;-2.80;99.90
10390;DHT22;5241;47.830;12.972;2023-04-05T04:05:15;-2.90;99.90
10390;DHT22;5241;47.830;12.972;2023-04-05T04:07:41;-3.00;99.90
10390;DHT22;5241;47.830;12.972;2023-04-05T04:10:09;-3.00;99.90
10390;DHT22;5241;47.830;12.972;2023-04-05T04:12:35;-3.00;99.90
10390;DHT22;5241;47.830;12.972;2023-04-05T04:15:01;-2.90;99.90
10390;DHT22;5241;47.830;12.972;2023-04-05T04:17:34;-2.90;99.90
10390;DHT22;5241;47.830;12.972;2023-04-05T04:20:01;-2.80;99.90
10390;DHT22;5241;47.830;12.972;2023-04-05T04:22:32;-2.90;99.90
10390;DHT22;5241;47.830;12.972;2023-04-05T04:25:00;-2.80;99.90
10390;DHT22;5241;47.830;12.972;2023-04-05T04:27:32;-3.00;99.90
10390;DHT22;5241;47.830;12.972;2023-04-05T04:29:59;-2.90;99.90
10390;DHT22;5241;47.830;12.972;2023-04-05T04:32:29;-3.00;99.90
10390;DHT22;5241;47.830;12.972;2023-04-05T04:35:13;-3.10;99.90
10390;DHT22;5241;47.830;12.972;2023-04-05T04:37:44;-3.10;99.90
10390;DHT22;5241;47.830;12.972;2023-04-05T04:40:14;-3.10;99.90
10390;DHT22;5241;47.830;12.972;2023-04-05T04:42:43;-3.20;99.90
10390;DHT22;5241;47.830;12.972;2023-04-05T04:45:14;-3.20;99.90
10390;DHT22;5241;47.830;12.972;2023-04-05T04:47:48;-3.10;99.90
10390;DHT22;5241;47.830;12.972;2023-04-05T04:50:14;-3.10;99.90
10390;DHT22;5241;47.830;12.972;2023-04-05T04:52:40;-3.20;99.90
10390;DHT22;5241;47.830;12.972;2023-04-05T04:55:07;-3.20;99.90
10390;DHT22;5241;47.830;12.972;2023-04-05T04:57:34;-3.20;99.90
10390;DHT22;5241;47.830;12.972;2023-04-05T05:00:00;-3.20;99.90
10390;DHT22;5241;47.830;12.972;2023-04-05T05:02:26;-3.10;99.90
10390;DHT22;5241;47.830;12.972;2023-04-05T05:04:52;-3.00;99.90
10390;DHT22;5241;47.830;12.972;2023-04-05T05:07:19;-3.00;99.90
10390;DHT22;5241;47.830;12.972;2023-04-05T05:09:45;-3.00;99.90
10390;DHT22;5241;47.830;12.972;2023-04-05T05:12:12;-2.90;99.90
10390;DHT22;5241;47.830;12.972;2023-04-05T05:14:37;-2.90;99.90
10390;DHT22;5241;47.830;12.972;2023-04-05T05:17:03;-2.90;99.90
10390;DHT22;5241;47.830;12.972;2023-04-05T05:19:30;-2.90;99.90
10390;DHT22;5241;47.830;12.972;2023-04-05T05:21:56;-2.90;99.90
10390;DHT22;5241;47.830;12.972;2023-04-05T05:24:22;-2.80;99.90
10390;DHT22;5241;47.830;12.972;2023-04-05T05:26:48;-2.70;99.90
10390;DHT22;5241;47.830;12.972;2023-04-05T05:29:14;-2.70;99.90
10390;DHT22;5241;47.830;12.972;2023-04-05T05:31:40;-2.70;99.90
10390;DHT22;5241;47.830;12.972;2023-04-05T05:34:05;-2.60;99.90
10390;DHT22;5241;47.830;12.972;2023-04-05T05:36:31;-2.60;99.90
10390;DHT22;5241;47.830;12.972;2023-04-05T05:38:56;-2.60;99.90
10390;DHT22;5241;47.830;12.972;2023-04-05T05:41:23;-2.50;99.90
10390;DHT22;5241;47.830;12.972;2023-04-05T05:43:48;-2.40;99.90
10390;DHT22;5241;47.830;12.972;2023-04-05T05:46:14;-2.40;99.90
10390;DHT22;5241;47.830;12.972;2023-04-05T05:48:40;-2.30;99.90
10390;DHT22;5241;47.830;12.972;2023-04-05T05:51:06;-2.20;99.90
10390;DHT22;5241;47.830;12.972;2023-04-05T05:53:38;-2.10;99.90
10390;DHT22;5241;47.830;12.972;2023-04-05T05:56:05;-2.00;99.90
10390;DHT22;5241;47.830;12.972;2023-04-05T05:58:31;-2.00;99.90
10390;DHT22;5241;47.830;12.972;2023-04-05T06:00:56;-2.00;99.90
10390;DHT22;5241;47.830;12.972;2023-04-05T06:03:23;-1.90;99.90
10390;DHT22;5241;47.830;12.972;2023-04-05T06:05:54;-1.80;99.90
10390;DHT22;5241;47.830;12.972;2023-04-05T06:08:20;-1.60;99.90
10390;DHT22;5241;47.830;12.972;2023-04-05T06:10:47;-1.50;99.90
10390;DHT22;5241;47.830;12.972;2023-04-05T06:13:13;-1.30;99.90
10390;DHT22;5241;47.830;12.972;2023-04-05T06:15:39;-1.30;99.90
10390;DHT22;5241;47.830;12.972;2023-04-05T06:18:04;-1.30;99.90
10390;DHT22;5241;47.830;12.972;2023-04-05T06:20:30;-1.10;99.90
10390;DHT22;5241;47.830;12.972;2023-04-05T06:22:55;-1.00;99.90
10390;DHT22;5241;47.830;12.972;2023-04-05T06:25:21;-1.00;99.90
10390;DHT22;5241;47.830;12.972;2023-04-05T06:27:47;-0.80;99.90
10390;DHT22;5241;47.830;12.972;2023-04-05T06:30:12;-0.80;99.90
10390;DHT22;5241;47.830;12.972;2023-04-05T06:32:38;-0.50;99.90
10390;DHT22;5241;47.830;12.972;2023-04-05T06:35:04;-0.50;99.90
10390;DHT22;5241;47.830;12.972;2023-04-05T06:37:30;-0.30;99.90
10390;DHT22;5241;47.830;12.972;2023-04-05T06:39:55;-0.10;99.90
10390;DHT22;5241;47.830;12.972;2023-04-05T06:42:21;0.00;99.90
10390;DHT22;5241;47.830;12.972;2023-04-05T06:44:47;0.20;99.90
10390;DHT22;5241;47.830;12.972;2023-04-05T06:47:13;0.30;99.90
10390;DHT22;5241;47.830;12.972;2023-04-05T06:49:38;0.60;99.90
10390;DHT22;5241;47.830;12.972;2023-04-05T06:52:04;0.70;99.90
10390;DHT22;5241;47.830;12.972;2023-04-05T06:54:36;0.80;99.90
10390;DHT22;5241;47.830;12.972;2023-04-05T06:57:02;0.80;99.90
10390;DHT22;5241;47.830;12.972;2023-04-05T06:59:28;0.80;99.90
10390;DHT22;5241;47.830;12.972;2023-04-05T07:01:54;1.10;99.90
10390;DHT22;5241;47.830;12.972;2023-04-05T07:04:20;1.30;99.90
10390;DHT22;5241;47.830;12.972;2023-04-05T07:06:46;1.30;99.90
10390;DHT22;5241;47.830;12.972;2023-04-05T07:09:11;1.50;99.90
10390;DHT22;5241;47.830;12.972;2023-04-05T07:11:37;1.80;99.90
10390;DHT22;5241;47.830;12.972;2023-04-05T07:14:04;2.20;99.90
10390;DHT22;5241;47.830;12.972;2023-04-05T07:16:30;2.50;99.90
10390;DHT22;5241;47.830;12.972;2023-04-05T07:18:56;3.30;99.90
10390;DHT22;5241;47.830;12.972;2023-04-05T07:21:22;3.80;99.90
10390;DHT22;5241;47.830;12.972;2023-04-05T07:23:47;4.20;99.90
10390;DHT22;5241;47.830;12.972;2023-04-05T07:26:13;4.90;99.90
10390;DHT22;5241;47.830;12.972;2023-04-05T07:28:39;5.60;98.30
10390;DHT22;5241;47.830;12.972;2023-04-05T07:31:05;6.20;95.60
10390;DHT22;5241;47.830;12.972;2023-04-05T07:33:31;6.60;95.10
10390;DHT22;5241;47.830;12.972;2023-04-05T07:35:57;7.20;93.40
10390;DHT22;5241;47.830;12.972;2023-04-05T07:38:23;7.50;90.30
10390;DHT22;5241;47.830;12.972;2023-04-05T07:40:49;7.20;92.10
10390;DHT22;5241;47.830;12.972;2023-04-05T07:43:15;6.70;92.20
10390;DHT22;5241;47.830;12.972;2023-04-05T07:45:41;6.80;91.40
10390;DHT22;5241;47.830;12.972;2023-04-05T07:48:07;6.50;92.00
10390;DHT22;5241;47.830;12.972;2023-04-05T07:50:33;7.10;91.50
10390;DHT22;5241;47.830;12.972;2023-04-05T07:52:59;6.90;92.40
10390;DHT22;5241;47.830;12.972;2023-04-05T07:55:25;7.00;91.80
10390;DHT22;5241;47.830;12.972;2023-04-05T07:57:52;7.20;90.00
10390;DHT22;5241;47.830;12.972;2023-04-05T08:00:18;7.50;89.20
10390;DHT22;5241;47.830;12.972;2023-04-05T08:02:44;8.20;88.30
10390;DHT22;5241;47.830;12.972;2023-04-05T08:05:09;8.00;87.20
10390;DHT22;5241;47.830;12.972;2023-04-05T08:07:35;8.40;86.20
10390;DHT22;5241;47.830;12.972;2023-04-05T08:10:01;8.90;84.50
10390;DHT22;5241;47.830;12.972;2023-04-05T08:12:27;8.70;84.40
10390;DHT22;5241;47.830;12.972;2023-04-05T08:14:52;8.70;84.40
10390;DHT22;5241;47.830;12.972;2023-04-05T08:17:18;8.70;83.00
10390;DHT22;5241;47.830;12.972;2023-04-05T08:19:44;8.70;83.00
10390;DHT22;5241;47.830;12.972;2023-04-05T08:22:10;8.90;82.90
10390;DHT22;5241;47.830;12.972;2023-04-05T08:24:35;8.80;82.00
10390;DHT22;5241;47.830;12.972;2023-04-05T08:27:01;8.20;84.20
10390;DHT22;5241;47.830;12.972;2023-04-05T08:29:26;7.80;85.00
10390;DHT22;5241;47.830;12.972;2023-04-05T08:31:55;7.60;87.00
10390;DHT22;5241;47.830;12.972;2023-04-05T08:34:22;7.90;84.80
10390;DHT22;5241;47.830;12.972;2023-04-05T08:36:47;8.10;84.10
10390;DHT22;5241;47.830;12.972;2023-04-05T08:39:13;8.10;87.80
10390;DHT22;5241;47.830;12.972;2023-04-05T08:41:40;8.80;84.90
10390;DHT22;5241;47.830;12.972;2023-04-05T08:44:10;9.00;84.20
10390;DHT22;5241;47.830;12.972;2023-04-05T08:46:37;9.00;81.80
10390;DHT22;5241;47.830;12.972;2023-04-05T08:49:07;8.80;81.60
10390;DHT22;5241;47.830;12.972;2023-04-05T08:51:35;8.90;80.60
10390;DHT22;5241;47.830;12.972;2023-04-05T08:54:02;9.30;79.30
10390;DHT22;5241;47.830;12.972;2023-04-05T08:56:33;9.40;78.20
10390;DHT22;5241;47.830;12.972;2023-04-05T08:59:04;9.30;78.50
10390;DHT22;5241;47.830;12.972;2023-04-05T09:01:31;9.50;73.30
10390;DHT22;5241;47.830;12.972;2023-04-05T09:04:18;9.80;76.00
10390;DHT22;5241;47.830;12.972;2023-04-05T09:06:46;10.10;74.50
10390;DHT22;5241;47.830;12.972;2023-04-05T09:09:13;9.40;74.60
10390;DHT22;5241;47.830;12.972;2023-04-05T09:11:38;9.30;77.70
10390;DHT22;5241;47.830;12.972;2023-04-05T09:14:05;9.90;74.40
10390;DHT22;5241;47.830;12.972;2023-04-05T09:16:39;9.80;72.80
10390;DHT22;5241;47.830;12.972;2023-04-05T09:19:06;9.50;72.80
10390;DHT22;5241;47.830;12.972;2023-04-05T09:22:01;9.40;72.00
10390;DHT22;5241;47.830;12.972;2023-04-05T09:24:35;9.40;71.90
10390;DHT22;5241;47.830;12.972;2023-04-05T09:27:05;8.30;73.90
10390;DHT22;5241;47.830;12.972;2023-04-05T09:29:31;7.50;73.60
10390;DHT22;5241;47.830;12.972;2023-04-05T09:31:56;7.40;73.80
10390;DHT22;5241;47.830;12.972;2023-04-05T09:34:23;7.10;76.00
10390;DHT22;5241;47.830;12.972;2023-04-05T09:36:48;6.70;76.80
10390;DHT22;5241;47.830;12.972;2023-04-05T09:39:14;6.80;75.80
10390;DHT22;5241;47.830;12.972;2023-04-05T09:42:07;7.50;74.00
10390;DHT22;5241;47.830;12.972;2023-04-05T09:44:58;7.60;73.00
10390;DHT22;5241;47.830;12.972;2023-04-05T09:47:30;7.80;73.80
10390;DHT22;5241;47.830;12.972;2023-04-05T09:49:57;8.30;70.80
10390;DHT22;5241;47.830;12.972;2023-04-05T09:52:25;8.90;67.30
10390;DHT22;5241;47.830;12.972;2023-04-05T09:54:52;9.20;65.60
10390;DHT22;5241;47.830;12.972;2023-04-05T09:57:22;9.20;67.60
10390;DHT22;5241;47.830;12.972;2023-04-05T09:59:48;9.80;66.60
10390;DHT22;5241;47.830;12.972;2023-04-05T10:02:15;10.10;65.70
10390;DHT22;5241;47.830;12.972;2023-04-05T10:04:41;10.10;65.10
10390;DHT22;5241;47.830;12.972;2023-04-05T10:07:11;10.00;65.70
10390;DHT22;5241;47.830;12.972;2023-04-05T10:09:39;10.30;65.30
10390;DHT22;5241;47.830;12.972;2023-04-05T10:12:06;10.90;65.00
10390;DHT22;5241;47.830;12.972;2023-04-05T10:14:32;11.20;61.00
10390;DHT22;5241;47.830;12.972;2023-04-05T10:17:17;11.00;62.50
10390;DHT22;5241;47.830;12.972;2023-04-05T10:19:57;10.70;61.00
10390;DHT22;5241;47.830;12.972;2023-04-05T10:25:43;9.90;63.00
10390;DHT22;5241;47.830;12.972;2023-04-05T10:28:31;10.30;64.00
10390;DHT22;5241;47.830;12.972;2023-04-05T10:31:25;10.00;62.90
10390;DHT22;5241;47.830;12.972;2023-04-05T10:34:00;9.40;62.20
10390;DHT22;5241;47.830;12.972;2023-04-05T10:36:44;8.90;66.60
10390;DHT22;5241;47.830;12.972;2023-04-05T10:39:34;9.70;63.20
10390;DHT22;5241;47.830;12.972;2023-04-05T10:42:10;9.80;64.90
10390;DHT22;5241;47.830;12.972;2023-04-05T10:44:38;10.20;64.60
10390;DHT22;5241;47.830;12.972;2023-04-05T10:47:06;10.60;60.70
10390;DHT22;5241;47.830;12.972;2023-04-05T10:49:48;9.30;61.20
10390;DHT22;5241;47.830;12.972;2023-04-05T10:52:16;8.50;63.60
10390;DHT22;5241;47.830;12.972;2023-04-05T10:54:42;8.60;64.90
10390;DHT22;5241;47.830;12.972;2023-04-05T10:57:08;8.40;64.80
10390;DHT22;5241;47.830;12.972;2023-04-05T10:59:35;8.00;65.40
10390;DHT22;5241;47.830;12.972;2023-04-05T11:02:04;7.50;66.00
10390;DHT22;5241;47.830;12.972;2023-04-05T11:04:32;7.60;66.80
10390;DHT22;5241;47.830;12.972;2023-04-05T11:07:18;8.10;67.20
10390;DHT22;5241;47.830;12.972;2023-04-05T11:09:50;9.20;67.90
10390;DHT22;5241;47.830;12.972;2023-04-05T11:12:16;10.50;60.40
10390;DHT22;5241;47.830;12.972;2023-04-05T11:14:42;11.30;59.20
10390;DHT22;5241;47.830;12.972;2023-04-05T11:17:27;11.40;59.40
10390;DHT22;5241;47.830;12.972;2023-04-05T11:20:03;11.30;59.80
10390;DHT22;5241;47.830;12.972;2023-04-05T11:22:30;11.30;62.30
10390;DHT22;5241;47.830;12.972;2023-04-05T11:25:00;11.80;58.90
10390;DHT22;5241;47.830;12.972;2023-04-05T11:29:57;11.50;58.40
10390;DHT22;5241;47.830;12.972;2023-04-05T11:32:23;11.70;58.70
10390;DHT22;5241;47.830;12.972;2023-04-05T11:35:06;12.20;54.90
10390;DHT22;5241;47.830;12.972;2023-04-05T11:38:14;12.10;56.00
10390;DHT22;5241;47.830;12.972;2023-04-05T11:40:37;12.10;56.90
10390;DHT22;5241;47.830;12.972;2023-04-05T11:43:06;12.30;59.30
10390;DHT22;5241;47.830;12.972;2023-04-05T11:45:35;13.00;59.00
10390;DHT22;5241;47.830;12.972;2023-04-05T11:48:11;13.20;54.60
10390;DHT22;5241;47.830;12.972;2023-04-05T11:50:39;13.20;56.60
10390;DHT22;5241;47.830;12.972;2023-04-05T11:53:16;12.90;55.50
10390;DHT22;5241;47.830;12.972;2023-04-05T11:55:44;13.80;51.70
10390;DHT22;5241;47.830;12.972;2023-04-05T11:58:20;14.10;52.10
10390;DHT22;5241;47.830;12.972;2023-04-05T12:01:02;13.80;48.80
10390;DHT22;5241;47.830;12.972;2023-04-05T12:03:30;13.30;52.10
10390;DHT22;5241;47.830;12.972;2023-04-05T12:05:57;13.30;52.80
10390;DHT22;5241;47.830;12.972;2023-04-05T12:08:40;13.50;55.90
10390;DHT22;5241;47.830;12.972;2023-04-05T12:11:10;14.00;52.80
10390;DHT22;5241;47.830;12.972;2023-04-05T12:13:37;14.00;53.10
10390;DHT22;5241;47.830;12.972;2023-04-05T12:16:04;14.00;51.00
10390;DHT22;5241;47.830;12.972;2023-04-05T12:18:32;14.10;51.70
10390;DHT22;5241;47.830;12.972;2023-04-05T12:21:02;14.00;51.10
10390;DHT22;5241;47.830;12.972;2023-04-05T12:23:28;13.00;53.80
10390;DHT22;5241;47.830;12.972;2023-04-05T12:25:55;13.40;51.40
10390;DHT22;5241;47.830;12.972;2023-04-05T12:28:21;13.20;50.90
10390;DHT22;5241;47.830;12.972;2023-04-05T12:30:51;13.00;53.00
10390;DHT22;5241;47.830;12.972;2023-04-05T12:33:31;13.00;51.10
10390;DHT22;5241;47.830;12.972;2023-04-05T12:35:58;11.20;55.10
10390;DHT22;5241;47.830;12.972;2023-04-05T12:38:29;12.20;56.50
10390;DHT22;5241;47.830;12.972;2023-04-05T12:40:59;13.60;54.40
10390;DHT22;5241;47.830;12.972;2023-04-05T12:43:25;13.90;50.70
10390;DHT22;5241;47.830;12.972;2023-04-05T12:45:54;14.30;51.80
10390;DHT22;5241;47.830;12.972;2023-04-05T12:48:22;13.60;54.00
10390;DHT22;5241;47.830;12.972;2023-04-05T12:50:50;13.80;52.60
10390;DHT22;5241;47.830;12.972;2023-04-05T12:53:23;13.70;53.50
10390;DHT22;5241;47.830;12.972;2023-04-05T12:55:53;13.10;51.90
10390;DHT22;5241;47.830;12.972;2023-04-05T12:58:20;13.20;53.10
10390;DHT22;5241;47.830;12.972;2023-04-05T13:00:46;13.20;53.50
10390;DHT22;5241;47.830;12.972;2023-04-05T13:03:17;13.00;54.90
10390;DHT22;5241;47.830;12.972;2023-04-05T13:05:44;13.00;54.30
10390;DHT22;5241;47.830;12.972;2023-04-05T13:08:10;13.20;52.30
10390;DHT22;5241;47.830;12.972;2023-04-05T13:10:35;13.10;51.80
10390;DHT22;5241;47.830;12.972;2023-04-05T13:13:01;13.50;51.90
10390;DHT22;5241;47.830;12.972;2023-04-05T13:15:26;14.30;53.00
10390;DHT22;5241;47.830;12.972;2023-04-05T13:17:52;13.80;52.40
10390;DHT22;5241;47.830;12.972;2023-04-05T13:20:19;12.90;54.20
10390;DHT22;5241;47.830;12.972;2023-04-05T13:22:45;12.90;52.60
10390;DHT22;5241;47.830;12.972;2023-04-05T13:25:12;13.20;52.70
10390;DHT22;5241;47.830;12.972;2023-04-05T13:27:37;14.00;51.80
10390;DHT22;5241;47.830;12.972;2023-04-05T13:30:04;14.00;52.70
10390;DHT22;5241;47.830;12.972;2023-04-05T13:32:30;14.60;52.70
10390;DHT22;5241;47.830;12.972;2023-04-05T13:34:56;15.30;48.50
10390;DHT22;5241;47.830;12.972;2023-04-05T13:37:22;15.60;49.70
10390;DHT22;5241;47.830;12.972;2023-04-05T13:39:47;15.00;50.70
10390;DHT22;5241;47.830;12.972;2023-04-05T13:42:13;14.50;49.80
10390;DHT22;5241;47.830;12.972;2023-04-05T13:44:38;15.10;50.90
10390;DHT22;5241;47.830;12.972;2023-04-05T13:47:04;15.30;48.10
10390;DHT22;5241;47.830;12.972;2023-04-05T13:49:29;15.30;48.30
10390;DHT22;5241;47.830;12.972;2023-04-05T13:51:55;14.60;48.10
10390;DHT22;5241;47.830;12.972;2023-04-05T13:54:20;13.70;50.00
10390;DHT22;5241;47.830;12.972;2023-04-05T13:56:46;14.00;50.30
10390;DHT22;5241;47.830;12.972;2023-04-05T13:59:12;14.00;50.60
10390;DHT22;5241;47.830;12.972;2023-04-05T14:01:44;14.30;51.10
10390;DHT22;5241;47.830;12.972;2023-04-05T14:04:10;13.50;50.90
10390;DHT22;5241;47.830;12.972;2023-04-05T14:06:36;13.50;51.80
10390;DHT22;5241;47.830;12.972;2023-04-05T14:09:01;14.00;51.20
10390;DHT22;5241;47.830;12.972;2023-04-05T14:11:27;14.70;51.10
10390;DHT22;5241;47.830;12.972;2023-04-05T14:13:53;14.30;51.10
10390;DHT22;5241;47.830;12.972;2023-04-05T14:16:18;14.20;51.80
10390;DHT22;5241;47.830;12.972;2023-04-05T14:18:44;14.00;50.80
10390;DHT22;5241;47.830;12.972;2023-04-05T14:21:10;14.40;50.80
10390;DHT22;5241;47.830;12.972;2023-04-05T14:23:35;14.60;50.50
10390;DHT22;5241;47.830;12.972;2023-04-05T14:26:01;15.20;50.50
10390;DHT22;5241;47.830;12.972;2023-04-05T14:28:26;14.70;49.50
10390;DHT22;5241;47.830;12.972;2023-04-05T14:30:52;14.30;50.50
10390;DHT22;5241;47.830;12.972;2023-04-05T14:33:18;13.60;52.00
10390;DHT22;5241;47.830;12.972;2023-04-05T14:35:43;13.50;52.00
10390;DHT22;5241;47.830;12.972;2023-04-05T14:38:09;13.00;53.20
10390;DHT22;5241;47.830;12.972;2023-04-05T14:40:34;13.00;53.70
10390;DHT22;5241;47.830;12.972;2023-04-05T14:43:01;13.10;54.30
10390;DHT22;5241;47.830;12.972;2023-04-05T14:45:26;14.50;51.60
10390;DHT22;5241;47.830;12.972;2023-04-05T14:47:53;13.60;50.40
10390;DHT22;5241;47.830;12.972;2023-04-05T14:50:18;13.70;52.20
10390;DHT22;5241;47.830;12.972;2023-04-05T14:52:44;13.40;51.70
10390;DHT22;5241;47.830;12.972;2023-04-05T14:55:11;12.80;52.60
10390;DHT22;5241;47.830;12.972;2023-04-05T14:57:38;12.40;53.90
10390;DHT22;5241;47.830;12.972;2023-04-05T15:00:05;11.80;54.20
10390;DHT22;5241;47.830;12.972;2023-04-05T15:02:31;12.10;54.30
10390;DHT22;5241;47.830;12.972;2023-04-05T15:04:57;12.00;55.30
10390;DHT22;5241;47.830;12.972;2023-04-05T15:07:28;11.80;56.10
10390;DHT22;5241;47.830;12.972;2023-04-05T15:09:53;11.60;55.20
10390;DHT22;5241;47.830;12.972;2023-04-05T15:12:19;12.40;55.60
10390;DHT22;5241;47.830;12.972;2023-04-05T15:14:44;12.70;53.90
10390;DHT22;5241;47.830;12.972;2023-04-05T15:17:11;13.00;53.80
10390;DHT22;5241;47.830;12.972;2023-04-05T15:19:36;12.90;52.40
10390;DHT22;5241;47.830;12.972;2023-04-05T15:22:02;11.40;55.50
10390;DHT22;5241;47.830;12.972;2023-04-05T15:24:28;10.20;58.60
10390;DHT22;5241;47.830;12.972;2023-04-05T15:26:54;9.80;59.40
10390;DHT22;5241;47.830;12.972;2023-04-05T15:29:29;9.00;60.70
10390;DHT22;5241;47.830;12.972;2023-04-05T15:31:55;8.40;62.50
10390;DHT22;5241;47.830;12.972;2023-04-05T15:34:22;8.10;64.20
10390;DHT22;5241;47.830;12.972;2023-04-05T15:36:48;7.80;65.80
10390;DHT22;5241;47.830;12.972;2023-04-05T15:39:14;7.80;67.00
10390;DHT22;5241;47.830;12.972;2023-04-05T15:41:39;7.70;68.00
10390;DHT22;5241;47.830;12.972;2023-04-05T15:44:05;7.40;67.80
10390;DHT22;5241;47.830;12.972;2023-04-05T15:46:31;7.40;66.20
10390;DHT22;5241;47.830;12.972;2023-04-05T15:48:57;7.40;68.40
10390;DHT22;5241;47.830;12.972;2023-04-05T15:51:22;7.40;68.10
10390;DHT22;5241;47.830;12.972;2023-04-05T15:53:48;7.40;70.40
10390;DHT22;5241;47.830;12.972;2023-04-05T15:56:14;7.20;69.70